Time;durP1;ratioP1;P1;durP2;ratioP2;P2;SDS_P1;SDS_P2;PMS_P1;PMS_P2;Temp;Humidity;BMP_temperature;BMP_pressure;BME280_temperature;BME280_humidity;BME280_pressure;Samples;Min_cycle;Max_cycle;Signal;HPM_P1;HPM_P2
2023/12/06 00:00:45;;;;;;;;;;;1.50;99.90;;;;;;5091527;28;19995;-69
2023/12/06 00:03:11;;;;;;;;;;;1.40;99.90;;;;;;5091849;28;19920;-69
2023/12/06 00:05:39;;;;;;;;;;;1.50;99.90;;;;;;5079494;28;19942;-69
2023/12/06 00:08:06;;;;;;;;;;;1.50;99.90;;;;;;5102961;28;19920;-69
2023/12/06 00:10:33;;;;;;;;;;;1.50;99.90;;;;;;5103236;28;19978;-69
2023/12/06 00:12:59;;;;;;;;;;;1.40;99.90;;;;;;5102476;28;19920;-69
2023/12/06 00:15:27;;;;;;;;;;;1.40;99.90;;;;;;5102735;28;19923;-69
2023/12/06 00:17:53;;;;;;;;;;;1.50;99.90;;;;;;5098556;28;19920;-69
2023/12/06 00:20:20;;;;;;;;;;;1.50;99.90;;;;;;5083359;28;20142;-69
2023/12/06 00:22:47;;;;;;;;;;;1.50;99.90;;;;;;5083183;28;19963;-69
2023/12/06 00:25:14;;;;;;;;;;;1.50;99.90;;;;;;5087177;28;19926;-69
2023/12/06 00:27:41;;;;;;;;;;;1.40;99.90;;;;;;5103044;28;19962;-69
2023/12/06 00:30:08;;;;;;;;;;;1.40;99.90;;;;;;5091101;28;19920;-69
2023/12/06 00:32:36;;;;;;;;;;;1.40;99.90;;;;;;5101281;28;19955;-69
2023/12/06 00:35:02;;;;;;;;;;;1.30;99.90;;;;;;5083116;28;19938;-68
2023/12/06 00:37:29;;;;;;;;;;;1.40;99.90;;;;;;5097909;28;19920;-69
2023/12/06 00:39:56;;;;;;;;;;;1.40;99.90;;;;;;5106440;28;19987;-69
2023/12/06 00:42:22;;;;;;;;;;;1.40;99.90;;;;;;5106462;28;19919;-69
2023/12/06 00:44:49;;;;;;;;;;;1.40;99.90;;;;;;5105869;28;19923;-69
2023/12/06 00:47:15;;;;;;;;;;;1.40;99.90;;;;;;5106434;28;19920;-69
2023/12/06 00:49:43;;;;;;;;;;;1.40;99.90;;;;;;5087536;28;19984;-69
2023/12/06 00:52:10;;;;;;;;;;;1.40;99.90;;;;;;5086476;28;20113;-69
2023/12/06 00:54:36;;;;;;;;;;;1.40;99.90;;;;;;5086253;28;19983;-69
2023/12/06 00:57:03;;;;;;;;;;;1.40;99.90;;;;;;5086408;28;19928;-69
2023/12/06 00:59:30;;;;;;;;;;;1.40;99.90;;;;;;5083300;28;20259;-69
2023/12/06 01:01:57;;;;;;;;;;;1.40;99.90;;;;;;5086307;28;19983;-69
2023/12/06 01:04:23;;;;;;;;;;;1.40;99.90;;;;;;5072614;28;20210;-69
2023/12/06 01:06:51;;;;;;;;;;;1.40;99.90;;;;;;5084497;28;19987;-69
2023/12/06 01:09:18;;;;;;;;;;;1.40;99.90;;;;;;5105930;28;20090;-69
2023/12/06 01:11:45;;;;;;;;;;;1.40;99.90;;;;;;5105399;28;20225;-69
2023/12/06 01:14:11;;;;;;;;;;;1.40;99.90;;;;;;5105483;28;19926;-69
2023/12/06 01:16:38;;;;;;;;;;;1.40;99.90;;;;;;5105534;28;20232;-69
2023/12/06 01:19:04;;;;;;;;;;;1.50;99.90;;;;;;5092154;28;19920;-69
2023/12/06 01:21:32;;;;;;;;;;;1.50;99.90;;;;;;5086334;28;19983;-69
2023/12/06 01:24:00;;;;;;;;;;;1.50;99.90;;;;;;5085428;28;19920;-69
2023/12/06 01:26:26;;;;;;;;;;;1.50;99.90;;;;;;5085943;28;19963;-69
2023/12/06 01:28:53;;;;;;;;;;;1.50;99.90;;;;;;5078679;28;19929;-69
2023/12/06 01:31:19;;;;;;;;;;;1.50;99.90;;;;;;5105221;28;19983;-70
2023/12/06 01:33:46;;;;;;;;;;;1.50;99.90;;;;;;5096856;28;19934;-69
2023/12/06 01:36:12;;;;;;;;;;;1.50;99.90;;;;;;5082037;28;19920;-69
2023/12/06 01:38:39;;;;;;;;;;;1.50;99.90;;;;;;5097630;28;19979;-69
2023/12/06 01:41:10;;;;;;;;;;;1.60;99.90;;;;;;5085422;28;20361;-70
2023/12/06 01:43:37;;;;;;;;;;;1.60;99.90;;;;;;5085225;28;20025;-69
2023/12/06 01:46:04;;;;;;;;;;;1.60;99.90;;;;;;5085586;28;19927;-69
2023/12/06 01:48:31;;;;;;;;;;;1.60;99.90;;;;;;5084805;28;19921;-69
2023/12/06 01:50:58;;;;;;;;;;;1.70;99.90;;;;;;5084519;28;19920;-69
2023/12/06 01:53:25;;;;;;;;;;;1.70;99.90;;;;;;5085073;28;19956;-69
2023/12/06 01:55:52;;;;;;;;;;;1.70;99.90;;;;;;5085294;28;19920;-69
2023/12/06 01:58:21;;;;;;;;;;;1.70;99.90;;;;;;5085263;28;19984;-70
2023/12/06 02:00:47;;;;;;;;;;;1.70;99.90;;;;;;5092696;28;19987;-69
2023/12/06 02:03:14;;;;;;;;;;;1.70;99.90;;;;;;5100722;28;19987;-69
2023/12/06 02:05:41;;;;;;;;;;;1.80;99.90;;;;;;5085074;28;19996;-69
2023/12/06 02:08:07;;;;;;;;;;;1.80;99.90;;;;;;5104771;28;19979;-69
2023/12/06 02:10:34;;;;;;;;;;;1.80;99.90;;;;;;5104837;28;19926;-69
2023/12/06 02:13:01;;;;;;;;;;;1.80;99.90;;;;;;5104330;28;19927;-69
2023/12/06 02:15:29;;;;;;;;;;;1.70;99.90;;;;;;5104489;28;19946;-69
2023/12/06 02:17:55;;;;;;;;;;;1.80;99.90;;;;;;5099958;28;19942;-69
2023/12/06 02:20:22;;;;;;;;;;;1.80;99.90;;;;;;5093513;28;19921;-69
2023/12/06 02:22:50;;;;;;;;;;;1.80;99.90;;;;;;5084425;28;19963;-69
2023/12/06 02:25:18;;;;;;;;;;;1.80;99.90;;;;;;5084444;28;20113;-69
2023/12/06 02:27:45;;;;;;;;;;;1.80;99.90;;;;;;5084783;28;19920;-69
2023/12/06 02:30:12;;;;;;;;;;;1.80;99.90;;;;;;5084430;28;19959;-69
2023/12/06 02:32:39;;;;;;;;;;;1.80;99.90;;;;;;5084534;28;20168;-69
2023/12/06 02:35:09;;;;;;;;;;;1.80;99.90;;;;;;5081449;28;19921;-69
2023/12/06 02:37:36;;;;;;;;;;;1.70;99.90;;;;;;5087973;28;19988;-69
2023/12/06 02:40:05;;;;;;;;;;;1.70;99.90;;;;;;5095134;28;19960;-69
2023/12/06 02:42:34;;;;;;;;;;;1.70;99.90;;;;;;5104171;28;20275;-69
2023/12/06 02:45:00;;;;;;;;;;;1.70;99.90;;;;;;5084352;28;19999;-69
2023/12/06 02:47:27;;;;;;;;;;;1.70;99.90;;;;;;5083702;28;19959;-69
2023/12/06 02:49:54;;;;;;;;;;;1.70;99.90;;;;;;5083646;28;19963;-69
2023/12/06 02:52:20;;;;;;;;;;;1.70;99.90;;;;;;5083255;28;20261;-69
2023/12/06 02:54:47;;;;;;;;;;;1.70;99.90;;;;;;5083526;28;20359;-69
2023/12/06 02:57:14;;;;;;;;;;;1.60;99.90;;;;;;5084325;28;19983;-69
2023/12/06 02:59:42;;;;;;;;;;;1.60;99.90;;;;;;5076494;28;20269;-69
2023/12/06 03:02:08;;;;;;;;;;;1.60;99.90;;;;;;5075648;28;19983;-69
2023/12/06 03:04:35;;;;;;;;;;;1.50;99.90;;;;;;5084396;28;20188;-69
2023/12/06 03:07:01;;;;;;;;;;;1.60;99.90;;;;;;5094730;28;19926;-69
2023/12/06 03:09:28;;;;;;;;;;;1.60;99.90;;;;;;5103818;28;20249;-69
2023/12/06 03:11:54;;;;;;;;;;;1.60;99.90;;;;;;5103541;28;19923;-69
2023/12/06 03:14:21;;;;;;;;;;;1.60;99.90;;;;;;5090078;28;20162;-69
2023/12/06 03:16:49;;;;;;;;;;;1.60;99.90;;;;;;5084236;28;19962;-69
2023/12/06 03:19:16;;;;;;;;;;;1.60;99.90;;;;;;5084249;28;19988;-69
2023/12/06 03:21:42;;;;;;;;;;;1.60;99.90;;;;;;5076870;28;19920;-70
2023/12/06 03:24:09;;;;;;;;;;;1.60;99.90;;;;;;5103334;28;20004;-69
2023/12/06 03:26:35;;;;;;;;;;;1.60;99.90;;;;;;5103533;28;19926;-69
2023/12/06 03:29:02;;;;;;;;;;;1.60;99.90;;;;;;5100493;28;19928;-70
2023/12/06 03:31:29;;;;;;;;;;;1.60;99.90;;;;;;5078053;28;19983;-69
2023/12/06 03:33:56;;;;;;;;;;;1.60;99.90;;;;;;5084247;28;19951;-69
2023/12/06 03:36:23;;;;;;;;;;;1.60;99.90;;;;;;5088614;28;20091;-70
2023/12/06 03:38:50;;;;;;;;;;;1.60;99.90;;;;;;5077902;28;19920;-69
2023/12/06 03:41:19;;;;;;;;;;;1.60;99.90;;;;;;5083630;28;20224;-70
2023/12/06 03:43:45;;;;;;;;;;;1.60;99.90;;;;;;5083572;28;19970;-69
2023/12/06 03:46:12;;;;;;;;;;;1.60;99.90;;;;;;5083896;28;19920;-69
2023/12/06 03:48:39;;;;;;;;;;;1.70;99.90;;;;;;5083582;28;19920;-69
2023/12/06 03:51:07;;;;;;;;;;;1.70;99.90;;;;;;5087445;28;19920;-69
2023/12/06 03:53:34;;;;;;;;;;;1.60;99.90;;;;;;5103160;28;19920;-69
2023/12/06 03:56:00;;;;;;;;;;;1.60;99.90;;;;;;5084791;28;19921;-69
2023/12/06 03:58:27;;;;;;;;;;;1.70;99.90;;;;;;5083662;28;19951;-69
2023/12/06 04:00:55;;;;;;;;;;;1.70;99.90;;;;;;5086752;28;20231;-69
2023/12/06 04:03:22;;;;;;;;;;;1.70;99.90;;;;;;5093697;28;20257;-69
2023/12/06 04:05:49;;;;;;;;;;;1.70;99.90;;;;;;5081552;28;20080;-69
2023/12/06 04:08:17;;;;;;;;;;;1.80;99.90;;;;;;5083532;28;20206;-69
2023/12/06 04:10:43;;;;;;;;;;;1.80;99.90;;;;;;5083725;28;19927;-71
2023/12/06 04:13:10;;;;;;;;;;;1.80;99.90;;;;;;5084725;28;19921;-69
2023/12/06 04:15:36;;;;;;;;;;;1.80;99.90;;;;;;5087084;28;19983;-69
2023/12/06 04:18:03;;;;;;;;;;;1.90;99.90;;;;;;5084825;28;19932;-69
2023/12/06 04:20:30;;;;;;;;;;;1.80;99.90;;;;;;5073309;28;20095;-69
2023/12/06 04:22:56;;;;;;;;;;;1.90;99.90;;;;;;5096631;28;19987;-69
2023/12/06 04:25:24;;;;;;;;;;;1.90;99.90;;;;;;5106343;28;20228;-69
2023/12/06 04:27:51;;;;;;;;;;;1.90;99.90;;;;;;5106522;28;19920;-69
2023/12/06 04:30:17;;;;;;;;;;;1.90;99.90;;;;;;5090387;28;20236;-69
2023/12/06 04:32:44;;;;;;;;;;;2.00;99.90;;;;;;5084524;28;19952;-69
2023/12/06 04:35:11;;;;;;;;;;;1.90;99.90;;;;;;5082113;28;19929;-69
2023/12/06 04:37:37;;;;;;;;;;;1.90;99.90;;;;;;5082648;28;19920;-69
2023/12/06 04:40:05;;;;;;;;;;;1.90;99.90;;;;;;5078852;28;20152;-69
2023/12/06 04:42:34;;;;;;;;;;;2.00;99.90;;;;;;5086731;28;19962;-69
2023/12/06 04:45:00;;;;;;;;;;;2.00;99.90;;;;;;5085986;28;19920;-69
2023/12/06 04:47:27;;;;;;;;;;;2.00;99.90;;;;;;5086565;28;19920;-69
2023/12/06 04:49:53;;;;;;;;;;;2.00;99.90;;;;;;5087102;28;19987;-69
2023/12/06 04:52:21;;;;;;;;;;;1.90;99.90;;;;;;5099701;28;19920;-69
2023/12/06 04:54:48;;;;;;;;;;;2.00;99.90;;;;;;5105154;28;19926;-68
2023/12/06 04:57:15;;;;;;;;;;;2.00;99.90;;;;;;5088500;28;19952;-69
2023/12/06 04:59:43;;;;;;;;;;;2.00;99.90;;;;;;5085717;28;19924;-68
2023/12/06 05:02:09;;;;;;;;;;;2.00;99.90;;;;;;5078298;28;19955;-69
2023/12/06 05:04:36;;;;;;;;;;;2.00;99.90;;;;;;5086544;28;19983;-69
2023/12/06 05:07:03;;;;;;;;;;;2.00;99.90;;;;;;5098767;28;19928;-69
2023/12/06 05:09:29;;;;;;;;;;;2.10;99.90;;;;;;5093149;28;19920;-69
2023/12/06 05:11:56;;;;;;;;;;;2.00;99.90;;;;;;5084342;28;19927;-69
2023/12/06 05:14:22;;;;;;;;;;;2.00;99.90;;;;;;5085295;28;20156;-69
2023/12/06 05:16:51;;;;;;;;;;;2.10;99.90;;;;;;5086290;28;19927;-69
2023/12/06 05:19:17;;;;;;;;;;;2.10;99.90;;;;;;5086589;28;19974;-70
2023/12/06 05:21:44;;;;;;;;;;;2.00;99.90;;;;;;5094216;28;19983;-69
2023/12/06 05:24:11;;;;;;;;;;;2.10;99.90;;;;;;5104468;28;19920;-69
2023/12/06 05:26:39;;;;;;;;;;;2.00;99.90;;;;;;5105795;28;19920;-69
2023/12/06 05:29:05;;;;;;;;;;;2.00;99.90;;;;;;5105235;28;19920;-70
2023/12/06 05:31:32;;;;;;;;;;;2.10;99.90;;;;;;5091530;28;20153;-69
2023/12/06 05:34:00;;;;;;;;;;;2.00;99.90;;;;;;5082462;28;19983;-70
2023/12/06 05:36:27;;;;;;;;;;;2.00;99.90;;;;;;5079476;28;19979;-69
2023/12/06 05:38:53;;;;;;;;;;;2.00;99.90;;;;;;5093680;28;19920;-70
2023/12/06 05:41:20;;;;;;;;;;;2.00;99.90;;;;;;5085193;28;19955;-69
2023/12/06 05:43:47;;;;;;;;;;;1.90;99.90;;;;;;5084598;28;19958;-69
2023/12/06 05:46:14;;;;;;;;;;;1.90;99.90;;;;;;5085441;28;19920;-69
2023/12/06 05:48:40;;;;;;;;;;;1.90;99.90;;;;;;5084136;28;19921;-69
2023/12/06 05:51:08;;;;;;;;;;;1.90;99.90;;;;;;5089511;28;19920;-69
2023/12/06 05:53:35;;;;;;;;;;;1.90;99.90;;;;;;5104263;28;19924;-72
2023/12/06 05:56:01;;;;;;;;;;;1.90;99.90;;;;;;5104402;28;19955;-68
2023/12/06 05:58:28;;;;;;;;;;;1.90;99.90;;;;;;5104790;28;20012;-68
2023/12/06 06:00:55;;;;;;;;;;;1.90;99.90;;;;;;5094673;28;19979;-69
2023/12/06 06:03:21;;;;;;;;;;;1.80;99.90;;;;;;5085447;28;19926;-69
2023/12/06 06:05:48;;;;;;;;;;;1.90;99.90;;;;;;5077557;28;19920;-69
2023/12/06 06:08:16;;;;;;;;;;;1.90;99.90;;;;;;5104743;28;19920;-69
2023/12/06 06:10:42;;;;;;;;;;;1.80;99.90;;;;;;5099141;28;20086;-70
2023/12/06 06:13:09;;;;;;;;;;;1.80;99.90;;;;;;5095783;28;19920;-70
2023/12/06 06:15:36;;;;;;;;;;;1.70;99.90;;;;;;5089586;28;20000;-70
2023/12/06 06:18:05;;;;;;;;;;;1.70;99.90;;;;;;5084628;28;19995;-69
2023/12/06 06:20:32;;;;;;;;;;;1.70;99.90;;;;;;5079279;28;19988;-69
2023/12/06 06:22:58;;;;;;;;;;;1.70;99.90;;;;;;5083325;28;19921;-69
2023/12/06 06:25:26;;;;;;;;;;;1.70;99.90;;;;;;5083913;28;20190;-69
2023/12/06 06:27:53;;;;;;;;;;;1.80;99.90;;;;;;5084310;28;19954;-69
2023/12/06 06:30:19;;;;;;;;;;;1.80;99.90;;;;;;5085257;28;19927;-70
2023/12/06 06:32:46;;;;;;;;;;;1.70;99.90;;;;;;5082156;28;19980;-77
2023/12/06 06:35:13;;;;;;;;;;;1.80;99.90;;;;;;5084130;28;19988;-68
2023/12/06 06:37:39;;;;;;;;;;;1.80;99.90;;;;;;5099712;28;19920;-69
2023/12/06 06:40:07;;;;;;;;;;;1.80;99.90;;;;;;5103926;28;20099;-69
2023/12/06 06:42:35;;;;;;;;;;;1.80;99.90;;;;;;5103910;28;19920;-69
2023/12/06 06:45:03;;;;;;;;;;;1.80;99.90;;;;;;5092361;28;19928;-68
2023/12/06 06:47:30;;;;;;;;;;;1.80;99.90;;;;;;5083890;28;19986;-71
2023/12/06 06:49:56;;;;;;;;;;;1.80;99.90;;;;;;5086148;28;19985;-70
2023/12/06 06:52:23;;;;;;;;;;;1.70;99.90;;;;;;5097392;28;20090;-68
2023/12/06 06:54:50;;;;;;;;;;;1.70;99.90;;;;;;5098111;28;19920;-68
2023/12/06 06:57:16;;;;;;;;;;;1.70;99.90;;;;;;5083933;28;20173;-67
2023/12/06 06:59:44;;;;;;;;;;;1.70;99.90;;;;;;5083713;28;19984;-70
2023/12/06 07:02:11;;;;;;;;;;;1.70;99.90;;;;;;5093862;28;19963;-70
2023/12/06 07:04:38;;;;;;;;;;;1.70;99.90;;;;;;5079596;28;20114;-69
2023/12/06 07:07:04;;;;;;;;;;;1.70;99.90;;;;;;5075103;28;19975;-68
2023/12/06 07:09:31;;;;;;;;;;;1.70;99.90;;;;;;5083997;28;19983;-70
2023/12/06 07:11:58;;;;;;;;;;;1.70;99.90;;;;;;5083835;28;20206;-70
2023/12/06 07:14:24;;;;;;;;;;;1.70;99.90;;;;;;5083228;28;19921;-70
2023/12/06 07:16:52;;;;;;;;;;;1.70;99.90;;;;;;5084123;28;19995;-69
2023/12/06 07:19:19;;;;;;;;;;;1.70;99.90;;;;;;5084672;28;19984;-69
2023/12/06 07:21:45;;;;;;;;;;;1.70;99.90;;;;;;5091988;28;19927;-70
2023/12/06 07:24:12;;;;;;;;;;;1.80;99.90;;;;;;5083129;28;19991;-69
2023/12/06 07:26:39;;;;;;;;;;;1.70;99.90;;;;;;5082811;28;19924;-70
2023/12/06 07:29:05;;;;;;;;;;;1.80;99.90;;;;;;5082469;28;19988;-70
2023/12/06 07:31:32;;;;;;;;;;;1.80;99.90;;;;;;5083878;28;19920;-69
2023/12/06 07:34:00;;;;;;;;;;;1.80;99.90;;;;;;5083228;28;20112;-69
2023/12/06 07:36:26;;;;;;;;;;;1.80;99.90;;;;;;5084033;28;19950;-69
2023/12/06 07:38:53;;;;;;;;;;;1.70;99.90;;;;;;5085119;28;19943;-69
2023/12/06 07:41:20;;;;;;;;;;;1.80;99.90;;;;;;5083231;28;19927;-72
2023/12/06 07:43:46;;;;;;;;;;;1.80;99.90;;;;;;5084396;28;19920;-69
2023/12/06 07:46:13;;;;;;;;;;;1.80;99.90;;;;;;5085494;28;19990;-69
2023/12/06 07:48:40;;;;;;;;;;;1.80;99.90;;;;;;5080917;28;19980;-69
2023/12/06 07:51:08;;;;;;;;;;;1.90;99.90;;;;;;5090137;28;19984;-70
2023/12/06 07:53:34;;;;;;;;;;;1.90;99.90;;;;;;5092920;28;19951;-69
2023/12/06 07:56:01;;;;;;;;;;;1.90;99.90;;;;;;5089053;28;19956;-69
2023/12/06 07:58:30;;;;;;;;;;;1.90;99.90;;;;;;5082217;28;19921;-69
2023/12/06 08:00:57;;;;;;;;;;;1.90;99.90;;;;;;5090351;28;19956;-69
2023/12/06 08:03:26;;;;;;;;;;;2.00;99.90;;;;;;5082236;28;19952;-70
2023/12/06 08:05:52;;;;;;;;;;;2.00;99.90;;;;;;5079390;28;19924;-69
2023/12/06 08:08:20;;;;;;;;;;;2.10;99.90;;;;;;5088770;28;19955;-69
2023/12/06 08:10:47;;;;;;;;;;;2.10;99.90;;;;;;5088727;28;19980;-68
2023/12/06 08:13:14;;;;;;;;;;;2.10;99.90;;;;;;5088218;28;19970;-69
2023/12/06 08:15:40;;;;;;;;;;;2.20;99.90;;;;;;5089320;28;20003;-68
2023/12/06 08:18:07;;;;;;;;;;;2.20;99.90;;;;;;5086668;28;19988;-69
2023/12/06 08:20:34;;;;;;;;;;;2.20;99.90;;;;;;5084016;28;20181;-69
2023/12/06 08:23:02;;;;;;;;;;;2.20;99.90;;;;;;5088208;28;19921;-69
2023/12/06 08:25:30;;;;;;;;;;;2.30;99.90;;;;;;5080114;28;20260;-69
2023/12/06 08:27:57;;;;;;;;;;;2.30;99.90;;;;;;5079927;28;20105;-68
2023/12/06 08:30:23;;;;;;;;;;;2.30;99.90;;;;;;5081034;28;19935;-69
2023/12/06 08:32:51;;;;;;;;;;;2.30;99.90;;;;;;5082260;28;19920;-69
2023/12/06 08:35:17;;;;;;;;;;;2.40;99.90;;;;;;5087257;28;19984;-69
2023/12/06 08:37:45;;;;;;;;;;;2.50;99.90;;;;;;5087912;28;20106;-69
2023/12/06 08:40:12;;;;;;;;;;;2.50;99.90;;;;;;5088394;28;19926;-69
2023/12/06 08:42:41;;;;;;;;;;;2.50;99.90;;;;;;5087778;28;20000;-69
2023/12/06 08:45:08;;;;;;;;;;;2.50;99.90;;;;;;5087223;28;19920;-70
2023/12/06 08:47:34;;;;;;;;;;;2.60;99.90;;;;;;5089386;28;19920;-69
2023/12/06 08:50:04;;;;;;;;;;;2.70;99.90;;;;;;5090644;28;19984;-70
2023/12/06 08:52:31;;;;;;;;;;;2.70;99.90;;;;;;5087710;28;19921;-69
2023/12/06 08:54:57;;;;;;;;;;;2.80;99.90;;;;;;5086901;28;20103;-69
2023/12/06 08:57:24;;;;;;;;;;;2.80;99.90;;;;;;5088892;28;19920;-69
2023/12/06 08:59:55;;;;;;;;;;;2.90;99.90;;;;;;5086738;28;19980;-69
2023/12/06 09:02:22;;;;;;;;;;;2.90;99.90;;;;;;5080644;28;20473;-69
2023/12/06 09:04:51;;;;;;;;;;;2.90;99.90;;;;;;5080579;28;19970;-69
2023/12/06 09:07:18;;;;;;;;;;;3.00;99.90;;;;;;5086252;28;19932;-69
2023/12/06 09:09:45;;;;;;;;;;;3.00;99.90;;;;;;5087476;28;19974;-69
2023/12/06 09:12:12;;;;;;;;;;;3.00;99.90;;;;;;5085874;28;20168;-69
2023/12/06 09:14:39;;;;;;;;;;;3.00;99.90;;;;;;5087936;28;19983;-69
2023/12/06 09:17:06;;;;;;;;;;;3.00;99.90;;;;;;5090511;28;19975;-69
2023/12/06 09:19:33;;;;;;;;;;;3.00;99.90;;;;;;5080750;28;19920;-69
2023/12/06 09:22:00;;;;;;;;;;;3.00;99.90;;;;;;5088523;28;19979;-69
2023/12/06 09:24:26;;;;;;;;;;;3.00;99.90;;;;;;5086499;28;19983;-69
2023/12/06 09:26:53;;;;;;;;;;;3.00;99.90;;;;;;5083051;28;19920;-69
2023/12/06 09:29:19;;;;;;;;;;;3.00;99.90;;;;;;5084790;28;19920;-69
2023/12/06 09:31:46;;;;;;;;;;;3.00;99.90;;;;;;5085186;28;19927;-69
2023/12/06 09:34:14;;;;;;;;;;;3.00;99.90;;;;;;5085532;28;19980;-70
2023/12/06 09:36:41;;;;;;;;;;;3.00;99.90;;;;;;5081034;28;19927;-69
2023/12/06 09:39:07;;;;;;;;;;;3.00;99.90;;;;;;5084901;28;19956;-69
2023/12/06 09:41:34;;;;;;;;;;;3.00;99.90;;;;;;5085228;28;19920;-70
2023/12/06 09:44:01;;;;;;;;;;;2.90;99.90;;;;;;5081114;28;19920;-69
2023/12/06 09:46:28;;;;;;;;;;;3.00;99.90;;;;;;5081711;28;19987;-68
2023/12/06 09:48:54;;;;;;;;;;;2.90;99.90;;;;;;5087714;28;19920;-69
2023/12/06 09:51:23;;;;;;;;;;;2.90;99.90;;;;;;5093974;28;20217;-70
2023/12/06 09:53:49;;;;;;;;;;;2.90;99.90;;;;;;5082728;28;20113;-70
2023/12/06 09:56:18;;;;;;;;;;;2.90;99.90;;;;;;5088293;28;19937;-70
2023/12/06 09:58:45;;;;;;;;;;;2.90;99.90;;;;;;5079555;28;19955;-71
2023/12/06 10:01:11;;;;;;;;;;;2.90;99.90;;;;;;5083341;28;19927;-71
2023/12/06 10:03:39;;;;;;;;;;;2.90;99.90;;;;;;5087441;28;20269;-71
2023/12/06 10:06:05;;;;;;;;;;;2.90;99.90;;;;;;5080214;28;19921;-71
2023/12/06 10:08:34;;;;;;;;;;;3.00;99.90;;;;;;5088088;28;19963;-70
2023/12/06 10:11:01;;;;;;;;;;;2.90;99.90;;;;;;5078992;28;19928;-71
2023/12/06 10:13:31;;;;;;;;;;;2.90;99.90;;;;;;5086077;28;19987;-70
2023/12/06 10:15:58;;;;;;;;;;;2.90;99.90;;;;;;5088431;28;19927;-70
2023/12/06 10:18:24;;;;;;;;;;;2.90;99.90;;;;;;5080557;28;19935;-70
2023/12/06 10:20:51;;;;;;;;;;;2.90;99.90;;;;;;5083784;28;19927;-70
2023/12/06 10:23:18;;;;;;;;;;;2.90;99.90;;;;;;5086101;28;19943;-70
2023/12/06 10:25:47;;;;;;;;;;;2.90;99.90;;;;;;5084871;28;19926;-70
2023/12/06 10:28:14;;;;;;;;;;;2.90;99.90;;;;;;5076229;28;19927;-70
2023/12/06 10:30:40;;;;;;;;;;;2.90;99.90;;;;;;5085779;28;19926;-70
2023/12/06 10:33:07;;;;;;;;;;;2.90;99.90;;;;;;5078038;28;20356;-70
2023/12/06 10:35:34;;;;;;;;;;;2.90;99.90;;;;;;5082461;28;19951;-70
2023/12/06 10:38:02;;;;;;;;;;;2.90;99.90;;;;;;5088240;28;19992;-70
2023/12/06 10:40:29;;;;;;;;;;;2.90;99.90;;;;;;5087689;28;19920;-69
2023/12/06 10:43:01;;;;;;;;;;;2.90;99.90;;;;;;5083854;28;20281;-70
2023/12/06 10:45:28;;;;;;;;;;;2.90;99.90;;;;;;5078057;28;19927;-70
2023/12/06 10:47:56;;;;;;;;;;;2.90;99.90;;;;;;5086035;28;19920;-73
2023/12/06 10:50:23;;;;;;;;;;;2.90;99.90;;;;;;5083946;28;20189;-70
2023/12/06 10:52:50;;;;;;;;;;;2.90;99.90;;;;;;5086997;28;19920;-71
2023/12/06 10:55:17;;;;;;;;;;;2.90;99.90;;;;;;5079554;28;20002;-70
2023/12/06 10:57:45;;;;;;;;;;;2.90;99.90;;;;;;5080121;28;19988;-71
2023/12/06 11:00:14;;;;;;;;;;;2.90;99.90;;;;;;5083686;28;19987;-71
2023/12/06 11:02:42;;;;;;;;;;;2.90;99.90;;;;;;5080258;28;19948;-70
2023/12/06 11:05:09;;;;;;;;;;;2.90;99.90;;;;;;5080964;28;19979;-70
2023/12/06 11:07:53;;;;;;;;;;;2.80;99.90;;;;;;5090782;28;19934;-70
2023/12/06 11:10:33;;;;;;;;;;;2.70;99.90;;;;;;5079078;28;19983;-70
2023/12/06 11:13:07;;;;;;;;;;;2.70;99.90;;;;;;5085545;28;19956;-70
2023/12/06 11:15:40;;;;;;;;;;;2.70;99.90;;;;;;5073705;28;19988;-71
2023/12/06 11:18:11;;;;;;;;;;;2.70;99.90;;;;;;5084151;28;20209;-71
2023/12/06 11:20:38;;;;;;;;;;;2.60;99.90;;;;;;5079752;28;19920;-70
2023/12/06 11:23:05;;;;;;;;;;;2.60;99.90;;;;;;5085454;28;19920;-70
2023/12/06 11:25:32;;;;;;;;;;;2.60;99.90;;;;;;5083038;28;19969;-71
2023/12/06 11:27:59;;;;;;;;;;;2.60;99.90;;;;;;5083091;28;19981;-71
2023/12/06 11:30:26;;;;;;;;;;;2.60;99.90;;;;;;5077738;28;19920;-70
2023/12/06 11:32:57;;;;;;;;;;;2.50;99.90;;;;;;5081666;28;19956;-70
2023/12/06 11:35:24;;;;;;;;;;;2.50;99.90;;;;;;5085099;28;20144;-71
2023/12/06 11:37:54;;;;;;;;;;;2.40;99.90;;;;;;5086632;28;19984;-70
2023/12/06 11:40:25;;;;;;;;;;;2.50;99.90;;;;;;5083607;28;21154;-70
2023/12/06 11:42:58;;;;;;;;;;;2.50;99.90;;;;;;5083752;28;19983;-71
2023/12/06 11:45:25;;;;;;;;;;;2.40;99.90;;;;;;5085397;28;19952;-70
2023/12/06 11:47:53;;;;;;;;;;;2.40;99.90;;;;;;5085386;28;19967;-71
2023/12/06 11:50:23;;;;;;;;;;;2.40;99.90;;;;;;5085821;28;19921;-70
2023/12/06 11:52:50;;;;;;;;;;;2.40;99.90;;;;;;5085838;28;19994;-71
2023/12/06 11:55:18;;;;;;;;;;;2.40;99.90;;;;;;5084816;28;19920;-71
2023/12/06 11:57:58;;;;;;;;;;;2.40;99.90;;;;;;5080654;28;19951;-70
2023/12/06 12:00:25;;;;;;;;;;;2.40;99.90;;;;;;5079754;28;20229;-70
2023/12/06 12:02:52;;;;;;;;;;;2.40;99.90;;;;;;5086328;28;19920;-70
2023/12/06 12:05:19;;;;;;;;;;;2.30;99.90;;;;;;5077967;28;19959;-70
2023/12/06 12:07:47;;;;;;;;;;;2.30;99.90;;;;;;5081308;28;20007;-71
2023/12/06 12:10:14;;;;;;;;;;;2.30;99.90;;;;;;5080149;28;20232;-71
2023/12/06 12:12:41;;;;;;;;;;;2.30;99.90;;;;;;5075993;28;19921;-70
2023/12/06 12:15:07;;;;;;;;;;;2.20;99.90;;;;;;5081373;28;20198;-70
2023/12/06 12:17:35;;;;;;;;;;;2.20;99.90;;;;;;5082324;28;20168;-70
2023/12/06 12:20:03;;;;;;;;;;;2.30;99.90;;;;;;5078589;28;19927;-70
2023/12/06 12:22:30;;;;;;;;;;;2.20;99.90;;;;;;5086972;28;19921;-70
2023/12/06 12:24:58;;;;;;;;;;;2.20;99.90;;;;;;5079122;28;19920;-71
2023/12/06 12:27:29;;;;;;;;;;;2.20;99.90;;;;;;5075826;28;19920;-70
2023/12/06 12:29:56;;;;;;;;;;;2.10;99.90;;;;;;5076532;28;19920;-69
2023/12/06 12:32:23;;;;;;;;;;;2.10;99.90;;;;;;5082887;28;19924;-70
2023/12/06 12:34:50;;;;;;;;;;;2.10;99.90;;;;;;5083656;28;20202;-70
2023/12/06 12:37:16;;;;;;;;;;;2.10;99.90;;;;;;5087642;28;20183;-74
2023/12/06 12:39:43;;;;;;;;;;;2.10;99.90;;;;;;5086086;28;20023;-72
2023/12/06 12:42:11;;;;;;;;;;;2.00;99.90;;;;;;5086775;28;19983;-70
2023/12/06 12:44:38;;;;;;;;;;;2.00;99.90;;;;;;5083408;28;19928;-70
2023/12/06 12:47:05;;;;;;;;;;;2.00;99.90;;;;;;5083667;28;20268;-70
2023/12/06 12:49:32;;;;;;;;;;;2.00;99.90;;;;;;5085458;28;19925;-70
2023/12/06 12:52:01;;;;;;;;;;;1.90;99.90;;;;;;5090112;28;19991;-70
2023/12/06 12:54:27;;;;;;;;;;;1.90;99.90;;;;;;5080668;28;19921;-71
2023/12/06 12:56:54;;;;;;;;;;;1.90;99.90;;;;;;5083568;28;19992;-71
2023/12/06 12:59:22;;;;;;;;;;;1.90;99.90;;;;;;5092008;28;19954;-71
2023/12/06 13:01:49;;;;;;;;;;;1.90;99.90;;;;;;5086638;28;20222;-71
2023/12/06 13:04:16;;;;;;;;;;;1.90;99.90;;;;;;5086839;28;19983;-71
2023/12/06 13:06:42;;;;;;;;;;;1.80;99.90;;;;;;5083294;28;19967;-72
2023/12/06 13:09:12;;;;;;;;;;;1.80;99.90;;;;;;5088218;28;20379;-71
2023/12/06 13:11:39;;;;;;;;;;;1.80;99.90;;;;;;5081963;28;20122;-71
2023/12/06 13:14:06;;;;;;;;;;;1.80;99.90;;;;;;5087732;28;19959;-70
2023/12/06 13:16:33;;;;;;;;;;;1.90;99.90;;;;;;5091873;28;19924;-71
2023/12/06 13:19:00;;;;;;;;;;;1.90;99.90;;;;;;5092201;28;19949;-71
2023/12/06 13:21:30;;;;;;;;;;;1.90;99.90;;;;;;5087953;28;19921;-71
2023/12/06 13:23:56;;;;;;;;;;;1.90;99.90;;;;;;5084870;28;19920;-71
2023/12/06 13:26:23;;;;;;;;;;;1.80;99.90;;;;;;5081590;28;19929;-71
2023/12/06 13:28:50;;;;;;;;;;;1.80;99.90;;;;;;5086504;28;20113;-71
2023/12/06 13:31:16;;;;;;;;;;;1.80;99.90;;;;;;5083797;28;19920;-71
2023/12/06 13:33:44;;;;;;;;;;;1.80;99.90;;;;;;5083600;28;20000;-71
2023/12/06 13:36:11;;;;;;;;;;;1.80;99.90;;;;;;5089569;28;20301;-71
2023/12/06 13:38:38;;;;;;;;;;;1.80;99.90;;;;;;5085231;28;19983;-70
2023/12/06 13:41:05;;;;;;;;;;;1.80;99.90;;;;;;5094289;28;19992;-71
2023/12/06 13:43:31;;;;;;;;;;;1.80;99.90;;;;;;5082950;28;19928;-70
2023/12/06 13:45:58;;;;;;;;;;;1.70;99.90;;;;;;5083236;28;19920;-70
2023/12/06 13:48:24;;;;;;;;;;;1.70;99.90;;;;;;5084676;28;19920;-71
2023/12/06 13:50:52;;;;;;;;;;;1.60;99.90;;;;;;5080043;28;19927;-71
2023/12/06 13:53:19;;;;;;;;;;;1.50;99.90;;;;;;5088027;28;19987;-70
2023/12/06 13:55:46;;;;;;;;;;;1.60;99.90;;;;;;5091015;28;20261;-71
2023/12/06 13:58:12;;;;;;;;;;;1.50;99.90;;;;;;5093819;28;19920;-70
2023/12/06 14:00:39;;;;;;;;;;;1.50;99.90;;;;;;5087785;28;19983;-71
2023/12/06 14:03:05;;;;;;;;;;;1.50;99.90;;;;;;5087127;28;19926;-71
2023/12/06 14:05:34;;;;;;;;;;;1.50;99.90;;;;;;5089247;28;19921;-71
2023/12/06 14:08:03;;;;;;;;;;;1.40;99.90;;;;;;5078881;28;19947;-72
2023/12/06 14:10:32;;;;;;;;;;;1.50;99.90;;;;;;5084943;28;19925;-70
2023/12/06 14:12:58;;;;;;;;;;;1.50;99.90;;;;;;5086052;28;19928;-71
2023/12/06 14:15:25;;;;;;;;;;;1.50;99.90;;;;;;5090114;28;19927;-70
2023/12/06 14:17:51;;;;;;;;;;;1.50;99.90;;;;;;5086851;28;19920;-71
2023/12/06 14:20:18;;;;;;;;;;;1.60;99.90;;;;;;5084200;28;19988;-70
2023/12/06 14:22:45;;;;;;;;;;;1.50;99.90;;;;;;5083927;28;19956;-73
2023/12/06 14:25:13;;;;;;;;;;;1.50;99.90;;;;;;5084557;28;19952;-71
2023/12/06 14:27:41;;;;;;;;;;;1.50;99.90;;;;;;5082346;28;19920;-71
2023/12/06 14:30:09;;;;;;;;;;;1.40;99.90;;;;;;5087296;28;19920;-71